Time;durP1;ratioP1;P1;durP2;ratioP2;P2;SDS_P1;SDS_P2;PMS_P1;PMS_P2;Temp;Humidity;BMP_temperature;BMP_pressure;BME280_temperature;BME280_humidity;BME280_pressure;Samples;Min_cycle;Max_cycle;Signal;HPM_P1;HPM_P2
2022/03/28 00:00:56;;;;;;;69.20;25.05;;;7.30;9.50;;;;;;6094565;23;20018;-87
2022/03/28 00:03:24;;;;;;;86.45;26.95;;;7.30;9.20;;;;;;6094300;23;20026;-87
2022/03/28 00:05:52;;;;;;;129.00;30.60;;;7.20;16.40;;;;;;6069828;23;20026;-86
2022/03/28 00:08:18;;;;;;;83.15;30.27;;;7.40;10.80;;;;;;6069019;23;20029;-87
2022/03/28 00:10:44;;;;;;;64.90;31.25;;;7.30;10.30;;;;;;6093513;23;20018;-87
2022/03/28 00:13:09;;;;;;;58.30;29.70;;;7.40;12.60;;;;;;6069442;23;20109;-86
2022/03/28 00:15:36;;;;;;;91.82;29.75;;;;;;;;;;6067986;23;20022;-87
2022/03/28 00:18:02;;;;;;;54.45;27.85;;;7.30;11.40;;;;;;6044615;23;20457;-85
2022/03/28 00:20:28;;;;;;;56.88;30.08;;;7.30;11.10;;;;;;6092658;23;20019;-85
2022/03/28 00:22:53;;;;;;;57.70;30.42;;;7.20;11.80;;;;;;6095011;23;20052;-86
2022/03/28 00:25:20;;;;;;;67.43;27.42;;;7.20;14.40;;;;;;6045130;23;20026;-85
2022/03/28 00:27:48;;;;;;;55.42;27.92;;;9.90;18.10;;;;;;6095673;23;20420;-85
2022/03/28 00:30:14;;;;;;;51.92;25.60;;;6.50;13.50;;;;;;6094526;23;20022;-86
2022/03/28 00:32:40;;;;;;;56.90;28.92;;;7.40;19.70;;;;;;6095539;23;20018;-85
2022/03/28 00:35:06;;;;;;;60.15;30.70;;;7.30;19.30;;;;;;6094670;23;20383;-87
2022/03/28 00:37:32;;;;;;;54.17;28.73;;;7.00;15.60;;;;;;6095549;23;20072;-87
2022/03/28 00:39:58;;;;;;;75.28;30.80;;;9.50;20.70;;;;;;6070127;23;20109;-87
2022/03/28 00:42:24;;;;;;;63.35;35.05;;;7.30;13.50;;;;;;6069247;23;20014;-87
2022/03/28 00:44:50;;;;;;;67.88;35.05;;;9.50;22.20;;;;;;6095571;23;20026;-86
2022/03/28 00:47:15;;;;;;;75.30;37.60;;;7.50;13.00;;;;;;6048290;23;20037;-86
2022/03/28 00:49:41;;;;;;;77.60;37.67;;;7.00;18.10;;;;;;6075048;23;20060;-91
2022/03/28 00:52:09;;;;;;;71.00;36.90;;;9.40;19.20;;;;;;6075830;23;20036;-87
2022/03/28 00:54:34;;;;;;;149.80;42.17;;;7.40;16.60;;;;;;6101795;23;20022;-86
2022/03/28 00:57:01;;;;;;;82.90;42.45;;;7.50;13.10;;;;;;6077440;23;20026;-86
2022/03/28 00:59:31;;;;;;;106.50;40.93;;;;;;;;;;6104911;23;20089;-90
2022/03/28 01:01:57;;;;;;;85.53;42.95;;;7.20;12.30;;;;;;6121361;23;20010;-86
2022/03/28 01:04:23;;;;;;;95.28;45.97;;;7.50;20.80;;;;;;6120215;23;20066;-91
2022/03/28 01:06:49;;;;;;;89.55;47.50;;;7.00;13.30;;;;;;6072265;23;20069;-85
2022/03/28 01:09:18;;;;;;;113.05;43.30;;;9.70;19.50;;;;;;6121078;23;20010;-94
2022/03/28 01:11:45;;;;;;;168.20;46.85;;;7.20;12.40;;;;;;6095647;23;20025;-88
2022/03/28 01:14:11;;;;;;;195.67;47.03;;;7.50;16.10;;;;;;6110957;23;20054;-86
2022/03/28 01:19:24;;;;;;;124.15;43.90;;;7.30;14.80;;;;;;6094128;23;20057;-86
2022/03/28 01:21:51;;;;;;;88.95;44.70;;;7.30;13.80;;;;;;6068724;23;20098;-86
2022/03/28 01:24:17;;;;;;;96.15;46.33;;;7.20;14.80;;;;;;6068760;23;20022;-86
2022/03/28 01:26:43;;;;;;;86.60;42.35;;;7.40;23.30;;;;;;6045283;23;20066;-85
2022/03/28 01:29:09;;;;;;;82.15;43.65;;;;;;;;;;6092449;23;20109;-86
2022/03/28 01:31:39;;;;;;;81.63;41.50;;;7.30;13.50;;;;;;6093060;23;20018;-87
2022/03/28 01:34:06;;;;;;;81.00;41.47;;;7.60;19.20;;;;;;6068554;23;20019;-85
2022/03/28 01:36:32;;;;;;;88.93;43.25;;;7.20;19.80;;;;;;6094100;23;20026;-85
2022/03/28 01:38:57;;;;;;;96.15;44.15;;;7.20;14.90;;;;;;6045360;23;20114;-86
2022/03/28 01:41:23;;;;;;;78.22;42.22;;;7.20;15.10;;;;;;6093929;23;20018;-85
2022/03/28 01:43:49;;;;;;;68.13;38.20;;;7.60;16.60;;;;;;6094311;23;20022;-85
2022/03/28 01:46:15;;;;;;;78.07;38.60;;;8.10;25.50;;;;;;6044201;23;20042;-85
2022/03/28 01:48:41;;;;;;;67.78;36.67;;;7.50;17.90;;;;;;6094148;23;20097;-85
2022/03/28 01:51:07;;;;;;;68.65;35.88;;;7.40;26.10;;;;;;6021577;23;20096;-88
2022/03/28 01:53:33;;;;;;;65.30;36.40;;;7.30;16.80;;;;;;6068808;23;20089;-85
2022/03/28 01:55:58;;;;;;;63.78;35.97;;;7.50;23.10;;;;;;6044440;23;20033;-86
2022/03/28 01:58:25;;;;;;;65.82;36.58;;;;;;;;;;6094586;23;20014;-86
2022/03/28 02:00:50;;;;;;;68.50;38.30;;;7.20;15.80;;;;;;6067772;23;20033;-86
2022/03/28 02:03:16;;;;;;;65.78;36.72;;;9.30;23.60;;;;;;6094897;23;20018;-86
2022/03/28 02:05:42;;;;;;;62.90;36.60;;;8.70;17.80;;;;;;6092117;23;20025;-86
2022/03/28 02:08:09;;;;;;;62.70;35.00;;;;;;;;;;6095063;23;20022;-86
2022/03/28 02:10:35;;;;;;;63.17;34.85;;;7.20;15.90;;;;;;6044879;23;20402;-86
2022/03/28 02:13:01;;;;;;;63.33;35.53;;;;;;;;;;6094720;23;20132;-86
2022/03/28 02:15:27;;;;;;;62.47;34.63;;;7.30;15.70;;;;;;6068087;23;20033;-86
2022/03/28 02:17:53;;;;;;;62.17;34.80;;;;;;;;;;6095323;23;20275;-86
2022/03/28 02:20:19;;;;;;;55.38;32.78;;;7.20;16.40;;;;;;6069278;23;20081;-86
2022/03/28 02:22:46;;;;;;;58.35;33.40;;;7.10;16.60;;;;;;6044515;23;20108;-87
2022/03/28 02:25:15;;;;;;;58.13;34.47;;;7.10;16.40;;;;;;6094424;23;20018;-86
2022/03/28 02:27:41;;;;;;;45.72;25.02;;;6.80;18.00;;;;;;6069219;23;20533;-86
2022/03/28 02:30:13;;;;;;;38.33;20.90;;;7.20;22.30;;;;;;6068325;23;20026;-86
2022/03/28 02:32:42;;;;;;;29.33;18.17;;;6.80;20.90;;;;;;6069075;23;20025;-86
2022/03/28 02:35:08;;;;;;;30.17;19.20;;;7.10;17.10;;;;;;6093177;23;20018;-86
2022/03/28 02:37:37;;;;;;;33.50;21.02;;;7.00;17.70;;;;;;6092250;23;20089;-87
2022/03/28 02:40:04;;;;;;;32.05;19.98;;;8.80;22.10;;;;;;6044143;23;20033;-87
2022/03/28 02:42:30;;;;;;;30.92;19.02;;;7.40;22.60;;;;;;6067622;23;20132;-86
2022/03/28 02:44:56;;;;;;;32.85;20.10;;;7.00;16.50;;;;;;6067808;23;20058;-90
2022/03/28 02:47:22;;;;;;;36.95;21.63;;;9.40;24.80;;;;;;6093598;23;20033;-87
2022/03/28 02:49:49;;;;;;;38.40;22.85;;;;;;;;;;6014423;23;20418;-86
2022/03/28 02:52:15;;;;;;;37.45;22.95;;;7.10;18.10;;;;;;6064911;23;20079;-86
2022/03/28 02:54:41;;;;;;;36.05;21.95;;;9.30;25.10;;;;;;6064749;23;20443;-86
2022/03/28 02:57:07;;;;;;;48.28;21.33;;;8.50;21.00;;;;;;6064160;23;20041;-86
2022/03/28 02:59:32;;;;;;;34.10;20.20;;;8.20;25.60;;;;;;6065125;23;20097;-86
2022/03/28 03:01:59;;;;;;;42.60;20.75;;;;;;;;;;6064826;23;20125;-86
2022/03/28 03:04:26;;;;;;;30.17;19.23;;;7.10;17.50;;;;;;6039279;23;20087;-86
2022/03/28 03:06:54;;;;;;;30.33;18.88;;;7.00;23.00;;;;;;6065408;23;20029;-87
2022/03/28 03:09:20;;;;;;;36.65;20.88;;;9.20;25.40;;;;;;6065758;23;20058;-89
2022/03/28 03:11:46;;;;;;;27.80;18.23;;;7.00;18.10;;;;;;6065250;23;20054;-86
2022/03/28 03:14:11;;;;;;;30.77;19.40;;;7.40;17.80;;;;;;6065329;23;20066;-86
2022/03/28 03:16:37;;;;;;;37.28;19.25;;;9.10;28.80;;;;;;6039389;23;20400;-85
2022/03/28 03:19:03;;;;;;;31.27;18.55;;;9.60;23.70;;;;;;6065385;23;20031;-86
2022/03/28 03:21:29;;;;;;;32.63;18.80;;;7.00;17.70;;;;;;6040102;23;20430;-91
2022/03/28 03:23:55;;;;;;;29.52;18.23;;;;;;;;;;6065552;23;20022;-86
2022/03/28 03:26:21;;;;;;;27.63;15.95;;;7.00;15.60;;;;;;6063756;23;20022;-86
2022/03/28 03:28:46;;;;;;;24.33;14.95;;;7.10;22.90;;;;;;6062983;23;20018;-85
2022/03/28 03:31:14;;;;;;;22.92;15.07;;;8.60;23.00;;;;;;6065242;23;20022;-86
2022/03/28 03:33:44;;;;;;;23.73;14.52;;;6.90;16.30;;;;;;6038582;23;20485;-86
2022/03/28 03:36:09;;;;;;;25.77;14.73;;;8.30;18.70;;;;;;6065251;23;20023;-86
2022/03/28 03:38:35;;;;;;;23.67;15.52;;;8.90;24.70;;;;;;6064036;23;20026;-86
2022/03/28 03:41:01;;;;;;;26.20;16.70;;;6.90;23.50;;;;;;6063404;23;20174;-86
2022/03/28 03:43:27;;;;;;;29.05;18.80;;;9.10;21.40;;;;;;6065628;23;20090;-85
2022/03/28 03:45:53;;;;;;;37.20;19.52;;;6.70;18.40;;;;;;6061821;23;20069;-86
2022/03/28 03:48:22;;;;;;;28.85;19.13;;;6.90;23.30;;;;;;6065550;23;20023;-85
2022/03/28 03:50:48;;;;;;;33.63;20.38;;;6.90;16.00;;;;;;6085412;23;20014;-86
2022/03/28 03:53:14;;;;;;;32.78;19.67;;;7.90;25.80;;;;;;5997575;23;20058;-87
2022/03/28 03:55:40;;;;;;;31.83;20.60;;;6.30;15.40;;;;;;6093005;23;20018;-86
2022/03/28 03:58:06;;;;;;;37.38;21.52;;;6.80;14.80;;;;;;6020694;23;20038;-86
2022/03/28 04:00:35;;;;;;;31.42;19.80;;;6.90;21.70;;;;;;6092645;23;20444;-85
2022/03/28 04:03:01;;;;;;;36.25;21.83;;;;;;;;;;6093216;23;20022;-87
2022/03/28 04:05:27;;;;;;;41.67;22.48;;;6.80;15.10;;;;;;6043225;23;20094;-87
2022/03/28 04:07:56;;;;;;;38.67;23.13;;;8.20;22.10;;;;;;6067380;23;20058;-87
2022/03/28 04:10:26;;;;;;;40.13;23.25;;;6.80;18.60;;;;;;6093647;23;20026;-87
2022/03/28 04:12:53;;;;;;;36.50;23.08;;;6.90;20.40;;;;;;6092485;23;20074;-86
2022/03/28 04:15:19;;;;;;;40.13;24.65;;;6.80;15.80;;;;;;6092968;23;20023;-87
2022/03/28 04:17:45;;;;;;;31.63;22.08;;;6.80;23.80;;;;;;6093252;23;20458;-87
2022/03/28 04:20:13;;;;;;;35.80;21.75;;;8.70;19.90;;;;;;6093352;23;20018;-87
2022/03/28 04:22:40;;;;;;;;;;;6.80;17.60;;;;;;6093463;23;20089;-92
2022/03/28 04:25:10;;;;;;;33.38;20.77;;;8.50;18.80;;;;;;6093857;23;19971;-87
2022/03/28 04:27:39;;;;;;;39.58;23.10;;;6.90;19.30;;;;;;6093393;23;20090;-87
2022/03/28 04:30:07;;;;;;;35.47;22.08;;;6.80;14.10;;;;;;6067388;23;20022;-87
2022/03/28 04:32:33;;;;;;;;;;;7.20;18.30;;;;;;6094264;23;20025;-87
2022/03/28 04:35:03;;;;;;;27.27;16.98;;;6.80;22.60;;;;;;6093519;23;19921;-89
2022/03/28 04:37:33;;;;;;;31.60;19.77;;;6.80;20.30;;;;;;6066190;23;20093;-86
2022/03/28 04:39:59;;;;;;;33.28;21.10;;;7.10;15.60;;;;;;6092401;23;20178;-85
2022/03/28 04:42:25;;;;;;;33.85;19.25;;;7.30;21.00;;;;;;6093335;23;20074;-85
2022/03/28 04:44:51;;;;;;;38.65;19.83;;;6.90;19.60;;;;;;6090602;23;20014;-85
2022/03/28 04:47:17;;;;;;;33.75;20.00;;;6.80;23.20;;;;;;6044060;23;20029;-84
2022/03/28 04:49:42;;;;;;;37.65;20.30;;;7.10;16.20;;;;;;6093189;23;20386;-84
2022/03/28 04:52:11;;;;;;;32.33;20.27;;;6.70;18.40;;;;;;6093631;23;20076;-84
2022/03/28 04:54:40;;;;;;;31.30;19.50;;;9.00;20.80;;;;;;6022714;23;20349;-86
2022/03/28 04:57:08;;;;;;;31.00;17.45;;;6.80;21.70;;;;;;6095512;23;20014;-85
2022/03/28 04:59:34;;;;;;;30.90;16.77;;;6.70;17.80;;;;;;6068892;23;20026;-84
2022/03/28 05:02:00;;;;;;;29.92;17.77;;;6.70;22.50;;;;;;6068126;23;20018;-85
2022/03/28 05:04:26;;;;;;;31.65;19.45;;;6.90;28.00;;;;;;6069645;23;20022;-85
2022/03/28 05:06:54;;;;;;;28.38;17.88;;;6.90;27.40;;;;;;6045499;23;20040;-86
2022/03/28 05:09:20;;;;;;;33.05;18.58;;;6.70;25.80;;;;;;6045857;23;20022;-86
2022/03/28 05:11:46;;;;;;;28.42;16.77;;;8.00;23.90;;;;;;6094747;23;20022;-87
2022/03/28 05:14:11;;;;;;;28.15;16.48;;;8.40;21.30;;;;;;6094525;23;20022;-88
2022/03/28 05:16:37;;;;;;;30.00;16.90;;;7.90;24.40;;;;;;6069767;23;20025;-87
2022/03/28 05:19:04;;;;;;;30.45;17.33;;;6.40;21.30;;;;;;6069449;23;20087;-85
2022/03/28 05:21:30;;;;;;;30.38;15.95;;;9.00;21.20;;;;;;6068933;23;20335;-87
2022/03/28 05:23:56;;;;;;;40.60;13.90;;;6.70;19.70;;;;;;6044377;23;20026;-87
2022/03/28 05:26:24;;;;;;;24.92;13.02;;;6.60;23.20;;;;;;6094383;23;20094;-87
2022/03/28 05:28:49;;;;;;;;;;;6.40;17.10;;;;;;6095454;23;20493;-87
2022/03/28 05:31:15;;;;;;;24.55;13.35;;;6.40;17.70;;;;;;6069348;23;19952;-88
2022/03/28 05:33:41;;;;;;;27.80;13.98;;;6.40;17.90;;;;;;6066914;23;20053;-91
2022/03/28 05:36:07;;;;;;;58.65;15.02;;;6.40;16.50;;;;;;6045354;23;20022;-89
2022/03/28 05:38:33;;;;;;;27.08;14.80;;;6.70;26.20;;;;;;6095350;23;20025;-85
2022/03/28 05:40:59;;;;;;;30.27;16.55;;;7.10;19.20;;;;;;6069178;23;20449;-87
2022/03/28 05:43:25;;;;;;;51.97;17.17;;;8.70;24.40;;;;;;6095277;23;20153;-87
2022/03/28 05:45:54;;;;;;;104.63;18.60;;;6.10;17.30;;;;;;6068568;23;20090;-87
2022/03/28 05:48:21;;;;;;;38.17;16.73;;;6.60;22.00;;;;;;6045983;23;20022;-87
2022/03/28 05:50:49;;;;;;;33.88;17.00;;;8.70;22.10;;;;;;6069207;23;20026;-87
2022/03/28 05:53:15;;;;;;;43.15;18.02;;;;;;;;;;6022039;23;20026;-87
2022/03/28 05:55:43;;;;;;;33.90;18.55;;;5.10;17.10;;;;;;6094687;23;20075;-88
2022/03/28 05:58:10;;;;;;;39.03;19.27;;;8.30;21.80;;;;;;6094389;23;20030;-87
2022/03/28 06:00:37;;;;;;;34.53;18.03;;;8.60;22.20;;;;;;6094409;23;20051;-86
2022/03/28 06:03:04;;;;;;;33.30;16.13;;;6.50;19.70;;;;;;6094062;23;20732;-86
2022/03/28 06:05:31;;;;;;;23.65;12.38;;;6.40;22.30;;;;;;6093239;23;20021;-86
2022/03/28 06:07:58;;;;;;;31.00;13.00;;;6.70;18.70;;;;;;6068899;23;20029;-86
2022/03/28 06:10:24;;;;;;;24.45;12.13;;;;;;;;;;6094484;23;20019;-86
2022/03/28 06:12:50;;;;;;;19.52;10.20;;;;;;;;;;6094623;23;20014;-91
2022/03/28 06:15:18;;;;;;;20.23;8.40;;;6.30;23.60;;;;;;6068019;23;20022;-86
2022/03/28 06:17:44;;;;;;;18.63;6.45;;;6.40;23.20;;;;;;6094722;23;20485;-86
2022/03/28 06:20:11;;;;;;;13.02;6.18;;;6.50;17.90;;;;;;6094289;23;20054;-86
2022/03/28 06:22:37;;;;;;;11.70;6.03;;;6.60;22.00;;;;;;6094672;23;20022;-86
2022/03/28 06:25:04;;;;;;;11.43;5.05;;;7.50;20.10;;;;;;6093867;23;20030;-87
2022/03/28 06:27:30;;;;;;;12.03;5.63;;;6.50;21.00;;;;;;6068313;23;20022;-86
2022/03/28 06:29:57;;;;;;;12.73;6.07;;;;;;;;;;6093760;23;20243;-87
2022/03/28 06:32:28;;;;;;;12.88;5.75;;;6.60;18.50;;;;;;6094457;23;20019;-86
2022/03/28 06:34:54;;;;;;;12.45;6.15;;;6.60;17.30;;;;;;6093902;23;20360;-87
2022/03/28 06:37:23;;;;;;;14.90;6.65;;;6.80;26.10;;;;;;6091621;23;20029;-87
2022/03/28 06:39:49;;;;;;;15.60;7.47;;;7.30;22.70;;;;;;6093616;23;20042;-86
2022/03/28 06:42:15;;;;;;;16.15;7.70;;;8.20;23.30;;;;;;6094661;23;20018;-87
2022/03/28 06:44:43;;;;;;;25.63;8.70;;;7.10;20.20;;;;;;6094525;23;20010;-88
2022/03/28 06:47:09;;;;;;;21.65;9.07;;;8.90;22.90;;;;;;6093996;23;20018;-84
2022/03/28 06:49:35;;;;;;;18.48;9.30;;;6.70;15.20;;;;;;6094322;23;20389;-86
2022/03/28 06:52:01;;;;;;;21.25;10.35;;;8.90;22.70;;;;;;6093938;23;20025;-88
2022/03/28 06:54:27;;;;;;;24.63;11.77;;;6.80;14.80;;;;;;6068020;23;20058;-87
2022/03/28 06:56:52;;;;;;;28.20;13.60;;;7.30;21.40;;;;;;6068663;23;20303;-88
2022/03/28 06:59:19;;;;;;;27.48;13.95;;;8.80;22.60;;;;;;6093710;23;20014;-88
2022/03/28 07:01:49;;;;;;;40.28;18.35;;;6.80;13.80;;;;;;6093848;23;20397;-87
2022/03/28 07:04:15;;;;;;;52.50;22.27;;;7.00;15.60;;;;;;6093752;23;20018;-85
2022/03/28 07:06:41;;;;;;;58.58;24.83;;;7.20;19.90;;;;;;6044592;23;20045;-85
2022/03/28 07:09:06;;;;;;;66.30;28.05;;;7.60;23.20;;;;;;6067875;23;20070;-87
2022/03/28 07:11:33;;;;;;;61.88;28.23;;;;;;;;;;6021019;23;20025;-87
2022/03/28 07:13:59;;;;;;;56.97;28.90;;;7.00;14.30;;;;;;6043708;23;20185;-87
2022/03/28 07:16:25;;;;;;;59.85;28.33;;;7.20;25.50;;;;;;6068053;23;20018;-87
2022/03/28 07:18:51;;;;;;;63.70;31.33;;;7.40;22.70;;;;;;6094405;23;20014;-87
2022/03/28 07:21:17;;;;;;;63.92;30.17;;;7.30;25.70;;;;;;6067818;23;20106;-85
2022/03/28 07:23:43;;;;;;;58.97;29.60;;;7.30;21.20;;;;;;6094223;23;20093;-85
2022/03/28 07:26:09;;;;;;;58.00;28.35;;;8.80;19.60;;;;;;6093663;23;20106;-85
2022/03/28 07:28:39;;;;;;;55.58;28.73;;;9.30;17.50;;;;;;6044213;23;20022;-86
2022/03/28 07:31:08;;;;;;;56.05;30.75;;;6.30;16.50;;;;;;6067152;23;20029;-85
2022/03/28 07:33:41;;;;;;;54.58;29.23;;;8.10;17.50;;;;;;6044615;23;20439;-85
2022/03/28 07:36:08;;;;;;;61.53;30.20;;;6.90;11.50;;;;;;6044232;23;20022;-87
2022/03/28 07:38:35;;;;;;;60.58;31.27;;;7.60;15.30;;;;;;6094418;23;20015;-87
2022/03/28 07:41:02;;;;;;;62.88;29.58;;;7.40;11.60;;;;;;6093501;23;20014;-88
2022/03/28 07:43:28;;;;;;;53.88;27.88;;;7.20;12.90;;;;;;6068729;23;20085;-87
2022/03/28 07:45:54;;;;;;;49.35;27.00;;;5.20;17.20;;;;;;6067356;23;20476;-87
2022/03/28 07:48:24;;;;;;;51.90;26.83;;;7.40;11.30;;;;;;6045022;23;20054;-87
2022/03/28 07:50:51;;;;;;;51.22;26.42;;;11.40;13.30;;;;;;6093838;23;20030;-87
2022/03/28 07:53:20;;;;;;;38.60;22.83;;;7.20;10.70;;;;;;6068891;23;20015;-88
2022/03/28 07:55:45;;;;;;;38.42;22.80;;;7.50;17.40;;;;;;6044884;23;20093;-87
2022/03/28 07:58:12;;;;;;;40.00;22.30;;;7.30;9.50;;;;;;6094460;23;20120;-87
2022/03/28 08:00:40;;;;;;;34.47;20.33;;;;;;;;;;6068364;23;20480;-87
2022/03/28 08:03:06;;;;;;;29.83;17.73;;;7.50;8.70;;;;;;6067590;23;20386;-87
2022/03/28 08:05:32;;;;;;;28.33;18.42;;;;;;;;;;6093959;23;20089;-87
2022/03/28 08:07:58;;;;;;;27.13;16.85;;;7.70;7.80;;;;;;6044281;23;20097;-87
2022/03/28 08:10:24;;;;;;;28.92;17.73;;;7.90;15.50;;;;;;6093163;23;20072;-87
2022/03/28 08:12:51;;;;;;;32.70;16.88;;;7.90;6.90;;;;;;6094061;23;20046;-86
2022/03/28 08:15:18;;;;;;;29.38;17.85;;;7.70;6.40;;;;;;6018956;23;20414;-86
2022/03/28 08:17:45;;;;;;;29.80;18.10;;;7.70;5.20;;;;;;6045083;23;20045;-87
2022/03/28 08:20:12;;;;;;;26.08;17.10;;;7.70;4.70;;;;;;6094419;23;20025;-87
2022/03/28 08:22:40;;;;;;;29.63;17.90;;;7.80;9.00;;;;;;6071228;23;20033;-86
2022/03/28 08:25:08;;;;;;;29.48;18.00;;;9.20;6.30;;;;;;6070284;23;20014;-86
2022/03/28 08:27:34;;;;;;;28.42;16.88;;;7.20;11.20;;;;;;6023821;23;20283;-87
2022/03/28 08:30:00;;;;;;;29.88;18.73;;;8.00;12.50;;;;;;6096726;23;20019;-89
2022/03/28 08:32:26;;;;;;;30.95;19.30;;;8.20;13.60;;;;;;6070968;23;20026;-87
2022/03/28 08:34:52;;;;;;;33.13;18.83;;;9.00;9.60;;;;;;6070412;23;20057;-87
2022/03/28 08:37:18;;;;;;;31.88;20.15;;;8.00;4.00;;;;;;6044694;23;20370;-86
2022/03/28 08:39:54;;;;;;;32.65;18.95;;;7.90;8.50;;;;;;6068582;23;20029;-90
2022/03/28 08:42:24;;;;;;;29.95;19.02;;;8.10;4.80;;;;;;6045713;23;20041;-87
2022/03/28 08:44:50;;;;;;;33.50;19.52;;;;;;;;;;6045997;23;20026;-87
2022/03/28 08:47:21;;;;;;;34.97;18.58;;;8.20;2.80;;;;;;6094651;23;20152;-86
2022/03/28 08:49:48;;;;;;;28.38;17.63;;;10.20;8.10;;;;;;6095439;23;20487;-88
2022/03/28 08:52:16;;;;;;;32.60;18.15;;;8.20;2.00;;;;;;6095665;23;20418;-87
2022/03/28 08:54:45;;;;;;;31.45;18.20;;;10.50;9.10;;;;;;6095473;23;20334;-88
2022/03/28 08:57:15;;;;;;;29.65;17.45;;;8.40;1.10;;;;;;6093435;23;20086;-87
2022/03/28 08:59:44;;;;;;;27.23;16.67;;;8.40;4.40;;;;;;6095358;23;20098;-87
2022/03/28 09:02:32;;;;;;;29.67;17.50;;;8.50;1.00;;;;;;6045044;23;20070;-87
2022/03/28 09:04:59;;;;;;;30.05;16.48;;;6.50;1.00;;;;;;6095423;23;20497;-87
2022/03/28 09:07:26;;;;;;;32.28;17.70;;;8.50;1.70;;;;;;6069667;23;20018;-87
2022/03/28 09:10:21;;;;;;;28.07;16.00;;;8.60;3.30;;;;;;6070153;23;20096;-87
2022/03/28 09:13:05;;;;;;;31.80;16.75;;;8.90;1.10;;;;;;6046088;23;20042;-89
2022/03/28 09:15:55;;;;;;;30.08;16.83;;;8.60;1.00;;;;;;6094479;23;20097;-87
2022/03/28 09:18:30;;;;;;;26.55;16.30;;;8.60;1.00;;;;;;6084249;23;20191;-87
2022/03/28 09:20:59;;;;;;;28.95;16.05;;;8.70;1.00;;;;;;6095752;23;20025;-88
2022/03/28 09:23:38;;;;;;;25.95;15.90;;;8.90;1.00;;;;;;6092579;23;20018;-86
2022/03/28 09:26:07;;;;;;;;;;;8.20;1.00;;;;;;6095486;23;20448;-86
2022/03/28 09:28:45;;;;;;;25.65;15.95;;;8.90;1.00;;;;;;6068895;23;19940;-87
2022/03/28 09:31:43;;;;;;;27.83;17.23;;;9.20;1.00;;;;;;6044487;23;20030;-85
2022/03/28 09:34:17;;;;;;;33.40;16.80;;;8.90;1.00;;;;;;6069478;23;20073;-86
2022/03/28 09:36:50;;;;;;;24.88;15.35;;;9.10;1.00;;;;;;6094641;23;20025;-85
2022/03/28 09:39:23;;;;;;;23.75;14.57;;;9.10;1.00;;;;;;6068622;23;20018;-85
2022/03/28 09:42:07;;;;;;;23.70;14.20;;;7.60;1.00;;;;;;6093636;23;20026;-86
2022/03/28 09:44:48;;;;;;;24.13;15.02;;;7.40;1.00;;;;;;6043930;23;20029;-86
2022/03/28 09:47:17;;;;;;;23.00;14.85;;;9.20;1.00;;;;;;6094006;23;20018;-86
2022/03/28 09:49:45;;;;;;;20.15;12.90;;;9.30;1.00;;;;;;6093040;23;20030;-86
2022/03/28 09:52:12;;;;;;;;;;;10.30;1.00;;;;;;6095361;23;20037;-86
2022/03/28 09:54:52;;;;;;;19.98;12.27;;;12.10;1.00;;;;;;6095111;23;19918;-85
2022/03/28 09:57:23;;;;;;;20.65;13.23;;;10.00;1.00;;;;;;6044863;23;20025;-86
2022/03/28 09:59:50;;;;;;;22.33;13.45;;;9.60;1.00;;;;;;6094838;23;20018;-87
2022/03/28 10:02:19;;;;;;;19.05;11.95;;;9.50;1.00;;;;;;6044452;23;20025;-86
2022/03/28 10:04:46;;;;;;;17.73;11.45;;;8.70;1.00;;;;;;6094601;23;20093;-86
2022/03/28 10:07:13;;;;;;;20.92;12.02;;;10.10;1.00;;;;;;6094419;23;20060;-87
2022/03/28 10:09:39;;;;;;;20.63;12.40;;;10.10;1.00;;;;;;6068673;23;20033;-86
2022/03/28 10:12:07;;;;;;;21.77;12.93;;;10.10;1.00;;;;;;6044769;23;20193;-87
2022/03/28 10:14:34;;;;;;;18.23;11.15;;;10.20;1.00;;;;;;6068294;23;20476;-86
2022/03/28 10:17:06;;;;;;;19.02;9.73;;;10.40;1.00;;;;;;6093881;23;20018;-86
2022/03/28 10:19:34;;;;;;;17.10;9.60;;;10.40;1.00;;;;;;6068729;23;20319;-86
2022/03/28 10:22:05;;;;;;;16.35;8.95;;;10.40;1.00;;;;;;6045525;23;20062;-86
2022/03/28 10:24:33;;;;;;;16.88;10.07;;;10.70;1.00;;;;;;6044343;23;20097;-86
2022/03/28 10:27:00;;;;;;;15.82;9.32;;;10.80;1.00;;;;;;6095020;23;20034;-87
2022/03/28 10:29:36;;;;;;;17.58;10.00;;;11.20;1.00;;;;;;6043956;23;20136;-86
2022/03/28 10:32:06;;;;;;;15.38;8.48;;;11.30;1.00;;;;;;6094060;23;20022;-87
2022/03/28 10:34:56;;;;;;;14.82;9.60;;;11.50;1.00;;;;;;6094172;23;20074;-88
2022/03/28 10:37:34;;;;;;;16.95;9.15;;;13.80;1.00;;;;;;6061464;23;20116;-87
2022/03/28 10:40:26;;;;;;;15.83;9.20;;;11.70;1.00;;;;;;6067052;23;20022;-88
2022/03/28 10:43:07;;;;;;;16.02;8.73;;;11.60;1.00;;;;;;6090059;23;20025;-86
2022/03/28 10:45:39;;;;;;;17.30;9.63;;;11.70;1.00;;;;;;6092562;23;20114;-86
2022/03/28 10:48:06;;;;;;;16.67;9.82;;;11.70;1.00;;;;;;6094460;23;20022;-86
2022/03/28 10:50:38;;;;;;;18.40;9.40;;;11.90;1.00;;;;;;6043777;23;20089;-86
2022/03/28 10:53:08;;;;;;;17.08;9.10;;;12.20;1.00;;;;;;6068988;23;20342;-88
2022/03/28 10:55:43;;;;;;;17.17;9.95;;;12.10;1.00;;;;;;6093665;23;20014;-87
2022/03/28 10:58:29;;;;;;;17.75;10.18;;;12.50;1.00;;;;;;6094644;23;20117;-85
2022/03/28 11:01:11;;;;;;;17.60;10.25;;;12.60;1.00;;;;;;6093354;23;20101;-86
2022/03/28 11:03:58;;;;;;;17.63;10.07;;;12.50;1.00;;;;;;6093598;23;20025;-86
2022/03/28 11:06:46;;;;;;;15.55;9.13;;;12.50;1.00;;;;;;6092173;23;20382;-86
2022/03/28 11:09:13;;;;;;;15.35;9.55;;;12.70;1.00;;;;;;6068571;23;20445;-86
2022/03/28 11:12:00;;;;;;;16.50;10.75;;;12.90;1.00;;;;;;6091840;23;20037;-86
2022/03/28 11:15:02;;;;;;;17.63;10.57;;;13.30;1.00;;;;;;6068212;23;20053;-87
2022/03/28 11:17:31;;;;;;;17.77;10.25;;;13.40;1.00;;;;;;6093627;23;20064;-86
2022/03/28 11:20:10;;;;;;;19.67;10.88;;;13.60;1.00;;;;;;6044281;23;20030;-88
2022/03/28 11:22:49;;;;;;;17.55;11.60;;;13.70;1.00;;;;;;6093195;23;20395;-86
2022/03/28 11:25:35;;;;;;;18.15;11.82;;;13.50;1.00;;;;;;6044347;23;20022;-86
2022/03/28 11:28:10;;;;;;;17.45;11.73;;;13.60;1.00;;;;;;6067829;23;20026;-85
2022/03/28 11:30:47;;;;;;;20.48;12.18;;;14.70;1.00;;;;;;6092194;23;20041;-86
2022/03/28 11:33:17;;;;;;;18.23;11.18;;;14.30;1.00;;;;;;6094108;23;20126;-87
2022/03/28 11:35:54;;;;;;;18.77;11.20;;;14.80;1.00;;;;;;6093946;23;20306;-85
2022/03/28 11:38:25;;;;;;;17.63;11.10;;;15.10;1.00;;;;;;6069340;23;20046;-85
2022/03/28 11:40:52;;;;;;;18.13;11.32;;;15.20;1.00;;;;;;6068519;23;20140;-85
2022/03/28 11:43:29;;;;;;;19.30;11.80;;;15.20;1.00;;;;;;6045131;23;20029;-85
2022/03/28 11:45:55;;;;;;;20.73;12.85;;;14.40;1.00;;;;;;6093881;23;20015;-87
2022/03/28 11:48:21;;;;;;;19.45;11.98;;;15.40;1.00;;;;;;6094657;23;20014;-85
2022/03/28 11:50:47;;;;;;;20.38;12.65;;;15.40;1.00;;;;;;6094205;23;20097;-86
2022/03/28 11:53:14;;;;;;;22.83;12.32;;;15.40;1.00;;;;;;6069131;23;20054;-86
2022/03/28 11:55:50;;;;;;;20.55;12.32;;;15.80;1.00;;;;;;6094944;23;20097;-87
2022/03/28 11:58:19;;;;;;;19.25;12.80;;;17.00;1.00;;;;;;6046207;23;20022;-86
2022/03/28 12:00:48;;;;;;;18.08;11.00;;;18.20;1.00;;;;;;6044921;23;20393;-86
2022/03/28 12:03:15;;;;;;;19.05;12.38;;;19.10;1.00;;;;;;6094530;23;20025;-86
2022/03/28 12:05:46;;;;;;;20.00;12.13;;;18.80;1.00;;;;;;6069760;23;20022;-87
2022/03/28 12:08:17;;;;;;;16.75;11.07;;;19.70;1.00;;;;;;6070083;23;20148;-86
2022/03/28 12:10:53;;;;;;;18.10;11.82;;;20.40;1.00;;;;;;6045723;23;20015;-85
2022/03/28 12:13:23;;;;;;;18.20;11.88;;;19.90;1.00;;;;;;6094069;23;20420;-90
2022/03/28 12:15:51;;;;;;;19.10;11.88;;;20.50;1.00;;;;;;6092868;23;20037;-85
2022/03/28 12:18:19;;;;;;;18.90;11.88;;;20.00;1.00;;;;;;6095978;23;20018;-86
2022/03/28 12:20:48;;;;;;;20.00;13.13;;;18.80;1.00;;;;;;6093616;23;20045;-85
2022/03/28 12:23:16;;;;;;;21.23;13.05;;;18.00;1.00;;;;;;6096036;23;20050;-85
2022/03/28 12:25:47;;;;;;;20.48;13.23;;;16.50;1.00;;;;;;6069171;23;20093;-85
2022/03/28 12:28:17;;;;;;;22.38;13.52;;;15.40;1.00;;;;;;6046297;23;20015;-85
2022/03/28 12:30:52;;;;;;;20.83;12.73;;;15.30;1.00;;;;;;6068904;23;20433;-85
2022/03/28 12:33:26;;;;;;;20.08;12.85;;;15.30;1.00;;;;;;6045912;23;20027;-86
2022/03/28 12:36:03;;;;;;;20.67;12.30;;;14.90;1.00;;;;;;6044738;23;20018;-85
2022/03/28 12:38:38;;;;;;;20.00;12.80;;;15.00;1.00;;;;;;6070301;23;20026;-87
2022/03/28 12:41:08;;;;;;;19.75;13.18;;;15.10;1.00;;;;;;6094362;23;20023;-85
2022/03/28 12:43:35;;;;;;;21.20;12.90;;;15.40;1.00;;;;;;6069463;23;20093;-87
2022/03/28 12:46:10;;;;;;;20.40;13.10;;;15.50;1.00;;;;;;6094244;23;20014;-86
2022/03/28 12:48:49;;;;;;;20.90;13.15;;;15.40;1.00;;;;;;6093431;23;20075;-85
2022/03/28 12:51:24;;;;;;;19.10;12.30;;;15.40;1.00;;;;;;6069560;23;20101;-86
2022/03/28 12:54:06;;;;;;;18.02;12.38;;;15.50;1.00;;;;;;6094562;23;20022;-86
2022/03/28 12:56:42;;;;;;;21.52;12.75;;;15.30;1.00;;;;;;6095562;23;20025;-85